createdAt,value
2022-10-16T00:01:13.046Z,59.00
2022-10-16T00:03:41.533Z,58.82
2022-10-16T00:06:09.220Z,52.91
2022-10-16T00:08:36.995Z,51.98
2022-10-16T00:11:07.933Z,53.60
2022-10-16T00:13:36.470Z,54.96
2022-10-16T00:16:04.533Z,52.72
2022-10-16T00:18:31.625Z,53.78
2022-10-16T00:21:06.960Z,54.14
2022-10-16T00:23:34.390Z,56.32
2022-10-16T00:26:03.849Z,56.14
2022-10-16T00:28:30.996Z,55.37
2022-10-16T00:30:58.069Z,55.94
2022-10-16T00:33:24.926Z,56.72
2022-10-16T00:35:51.918Z,57.33
2022-10-16T00:38:18.773Z,57.60
2022-10-16T00:40:45.620Z,56.18
2022-10-16T00:43:35.719Z,56.74
2022-10-16T00:46:04.238Z,58.73
2022-10-16T00:48:31.743Z,60.95
2022-10-16T00:50:59.322Z,63.48
2022-10-16T00:53:27.287Z,61.20
2022-10-16T00:55:54.451Z,66.89
2022-10-16T00:58:21.807Z,61.30
2022-10-16T01:00:48.762Z,61.40
2022-10-16T01:03:31.639Z,59.85
2022-10-16T01:06:09.022Z,55.47
2022-10-16T01:08:43.552Z,56.06
2022-10-16T01:11:46.827Z,53.68
2022-10-16T01:14:30.171Z,54.29
2022-10-16T01:17:04.575Z,53.63
2022-10-16T01:19:52.960Z,54.11
2022-10-16T01:22:20.934Z,55.47
2022-10-16T01:24:50.229Z,58.08
2022-10-16T01:27:23.843Z,58.62
2022-10-16T01:29:54.588Z,57.18
2022-10-16T01:32:40.059Z,56.33
2022-10-16T01:35:26.319Z,56.50
2022-10-16T01:38:08.379Z,55.41
2022-10-16T01:40:37.313Z,53.91
2022-10-16T01:43:10.469Z,55.49
2022-10-16T01:45:38.067Z,55.78
2022-10-16T01:48:08.988Z,55.97
2022-10-16T01:50:39.972Z,58.61
2022-10-16T01:53:07.345Z,53.62
2022-10-16T01:55:38.151Z,55.92
2022-10-16T01:58:06.698Z,52.72
2022-10-16T02:00:33.554Z,52.63
2022-10-16T02:03:03.025Z,51.50
2022-10-16T02:05:33.917Z,52.57
2022-10-16T02:08:03.207Z,55.31
2022-10-16T02:10:32.925Z,53.95
2022-10-16T02:13:12.869Z,55.50
2022-10-16T02:15:39.735Z,57.05
2022-10-16T02:18:07.791Z,57.03
2022-10-16T02:20:40.312Z,57.19
2022-10-16T02:23:09.451Z,57.02
2022-10-16T02:25:39.273Z,57.98
2022-10-16T02:28:19.836Z,59.05
2022-10-16T02:30:51.775Z,57.56
2022-10-16T02:33:19.540Z,56.32
2022-10-16T02:35:47.951Z,56.21
2022-10-16T02:38:16.395Z,54.30
2022-10-16T02:40:43.777Z,53.84
2022-10-16T02:43:11.037Z,55.58
2022-10-16T02:45:38.633Z,56.09
2022-10-16T02:48:06.266Z,56.68
2022-10-16T02:50:33.255Z,62.03
2022-10-16T02:53:00.119Z,57.20
2022-10-16T02:55:27.340Z,53.74
2022-10-16T02:57:54.288Z,53.09
2022-10-16T03:00:21.345Z,53.17
2022-10-16T03:02:48.308Z,53.21
2022-10-16T03:05:15.737Z,52.64
2022-10-16T03:07:42.694Z,52.45
2022-10-16T03:10:09.730Z,55.11
2022-10-16T03:12:36.562Z,55.90
2022-10-16T03:15:04.024Z,57.00
2022-10-16T03:17:31.028Z,57.87
2022-10-16T03:19:57.862Z,60.87
2022-10-16T03:22:24.670Z,59.17
2022-10-16T03:24:51.595Z,60.93
2022-10-16T03:27:18.635Z,62.48
2022-10-16T03:29:45.469Z,61.14
2022-10-16T03:32:12.345Z,60.69
2022-10-16T03:34:39.193Z,59.56
2022-10-16T03:37:06.077Z,59.90
2022-10-16T03:39:32.946Z,57.47
2022-10-16T03:41:59.777Z,56.00
2022-10-16T03:44:26.632Z,58.67
2022-10-16T03:46:53.496Z,55.05
2022-10-16T03:49:20.402Z,54.39
2022-10-16T03:51:47.263Z,56.51
2022-10-16T03:54:14.105Z,57.87
2022-10-16T03:56:40.957Z,57.86
2022-10-16T03:59:07.783Z,57.37
2022-10-16T04:01:34.600Z,57.67
2022-10-16T04:04:01.523Z,57.32
2022-10-16T04:06:28.359Z,56.32
2022-10-16T04:08:55.223Z,54.99
2022-10-16T04:11:22.064Z,53.60
2022-10-16T04:13:49.090Z,54.86
2022-10-16T04:16:15.910Z,56.51
2022-10-16T04:18:42.799Z,57.02
2022-10-16T04:21:09.680Z,55.52
2022-10-16T04:23:36.568Z,54.29
2022-10-16T04:26:03.428Z,55.18
2022-10-16T04:28:30.310Z,59.27
2022-10-16T04:30:57.307Z,57.30
2022-10-16T04:33:24.188Z,61.50
2022-10-16T04:35:57.913Z,60.98
2022-10-16T04:38:24.886Z,58.76
2022-10-16T04:40:51.788Z,58.98
2022-10-16T04:43:18.710Z,54.48
2022-10-16T04:45:45.657Z,53.86
2022-10-16T04:48:12.719Z,54.02
2022-10-16T04:50:39.589Z,52.80
2022-10-16T04:53:07.553Z,53.37
2022-10-16T04:55:34.541Z,55.10
2022-10-16T04:58:01.596Z,55.78
2022-10-16T05:00:28.447Z,57.56
2022-10-16T05:02:55.298Z,57.22
2022-10-16T05:05:22.378Z,57.76
2022-10-16T05:07:50.370Z,57.32
2022-10-16T05:10:17.833Z,56.00
2022-10-16T05:12:44.700Z,56.20
2022-10-16T05:15:11.905Z,58.83
2022-10-16T05:17:42.464Z,60.19
2022-10-16T05:20:12.016Z,61.78
2022-10-16T05:22:38.912Z,58.94
2022-10-16T05:25:06.084Z,60.84
2022-10-16T05:27:32.977Z,60.71
2022-10-16T05:29:59.795Z,61.04
2022-10-16T05:32:26.622Z,59.52
2022-10-16T05:34:53.454Z,59.60
2022-10-16T05:37:20.330Z,59.31
2022-10-16T05:39:47.160Z,59.06
2022-10-16T05:42:14.031Z,55.34
2022-10-16T05:44:40.917Z,56.07
2022-10-16T05:47:07.965Z,57.29
2022-10-16T05:49:37.808Z,57.46
2022-10-16T05:52:07.547Z,59.78
2022-10-16T05:54:34.423Z,58.56
2022-10-16T05:57:01.352Z,54.08
2022-10-16T05:59:28.179Z,53.53
2022-10-16T06:01:54.991Z,52.78
2022-10-16T06:04:21.837Z,50.81
2022-10-16T06:06:48.698Z,50.49
2022-10-16T06:09:15.538Z,48.91
2022-10-16T06:11:42.410Z,47.46
2022-10-16T06:14:09.506Z,45.90
2022-10-16T06:16:37.927Z,45.12
2022-10-16T06:19:07.590Z,44.83
2022-10-16T06:21:34.651Z,44.04
2022-10-16T06:24:01.520Z,42.93
2022-10-16T06:26:30.766Z,41.87
2022-10-16T06:28:59.189Z,41.23
2022-10-16T06:31:32.004Z,40.88
2022-10-16T06:33:59.191Z,40.47
2022-10-16T06:36:26.823Z,39.44
2022-10-16T06:38:53.777Z,39.83
2022-10-16T06:41:22.586Z,42.47
2022-10-16T06:43:49.663Z,44.65
2022-10-16T06:46:18.696Z,43.60
2022-10-16T06:48:45.897Z,46.12
2022-10-16T06:51:14.839Z,45.00
2022-10-16T06:54:02.441Z,44.76
2022-10-16T06:56:33.159Z,44.99
2022-10-16T06:59:00.359Z,44.46
2022-10-16T07:01:27.522Z,42.27
2022-10-16T07:03:54.668Z,41.83
2022-10-16T07:06:23.629Z,44.71
2022-10-16T07:08:51.095Z,46.02
2022-10-16T07:11:24.661Z,48.63
2022-10-16T07:13:55.029Z,44.75
2022-10-16T07:16:27.658Z,46.76
2022-10-16T07:19:02.204Z,46.97
2022-10-16T07:21:31.509Z,44.84
2022-10-16T07:24:00.375Z,49.25
2022-10-16T07:26:28.402Z,47.29
2022-10-16T07:28:56.081Z,48.32
2022-10-16T07:31:23.795Z,48.22
2022-10-16T07:33:51.520Z,47.32
2022-10-16T07:36:20.097Z,47.26
2022-10-16T07:38:47.786Z,46.42
2022-10-16T07:41:19.290Z,45.90
2022-10-16T07:43:50.446Z,45.01
2022-10-16T07:46:18.214Z,45.54
2022-10-16T07:48:48.127Z,45.62
2022-10-16T07:51:20.079Z,43.79
2022-10-16T07:53:47.982Z,44.99
2022-10-16T07:56:15.498Z,45.80
2022-10-16T07:58:42.563Z,47.64
2022-10-16T08:01:11.630Z,45.61
2022-10-16T08:03:38.833Z,46.07
2022-10-16T08:06:06.113Z,46.68
2022-10-16T08:08:33.055Z,46.03
2022-10-16T08:10:59.974Z,42.60
2022-10-16T08:13:27.748Z,41.44
2022-10-16T08:15:55.265Z,41.92
2022-10-16T08:18:22.114Z,41.17
2022-10-16T08:20:48.949Z,44.25
2022-10-16T08:23:15.867Z,42.45
2022-10-16T08:25:42.726Z,42.34
2022-10-16T08:28:10.992Z,40.75
2022-10-16T08:30:38.217Z,39.31
2022-10-16T08:33:05.129Z,45.52
2022-10-16T08:35:32.054Z,41.40
2022-10-16T08:37:58.910Z,41.72
2022-10-16T08:40:32.298Z,41.63
2022-10-16T08:43:11.227Z,41.63
2022-10-16T08:45:56.758Z,41.68
2022-10-16T08:48:38.965Z,42.92
2022-10-16T08:51:05.888Z,45.27
2022-10-16T08:53:39.718Z,41.92
2022-10-16T08:56:06.917Z,43.64
2022-10-16T08:58:33.848Z,42.03
2022-10-16T09:01:03.584Z,43.06
2022-10-16T09:03:36.481Z,42.45
2022-10-16T09:06:12.040Z,39.87
2022-10-16T09:08:53.060Z,39.86
2022-10-16T09:11:45.190Z,43.20
2022-10-16T09:14:32.499Z,40.71
2022-10-16T09:17:02.656Z,43.56
2022-10-16T09:19:37.742Z,41.83
2022-10-16T09:22:13.334Z,40.68
2022-10-16T09:24:40.160Z,38.00
2022-10-16T09:27:11.822Z,39.06
2022-10-16T09:29:39.457Z,40.28
2022-10-16T09:32:13.816Z,40.33
2022-10-16T09:34:44.756Z,40.69
2022-10-16T09:37:14.070Z,39.97
2022-10-16T09:39:52.596Z,41.51
2022-10-16T09:42:23.696Z,41.33
2022-10-16T09:44:54.805Z,44.36
2022-10-16T09:47:25.796Z,43.06
2022-10-16T09:50:03.235Z,44.55
2022-10-16T09:52:31.067Z,41.73
2022-10-16T09:55:04.069Z,46.91
2022-10-16T09:57:31.904Z,44.45
2022-10-16T09:59:59.679Z,42.61
2022-10-16T10:02:37.494Z,44.98
2022-10-16T10:05:06.135Z,43.62
2022-10-16T10:07:35.583Z,42.76
2022-10-16T10:10:05.618Z,43.54
2022-10-16T10:12:35.967Z,42.49
2022-10-16T10:15:12.153Z,41.31
2022-10-16T10:17:55.469Z,43.73
2022-10-16T10:20:35.493Z,44.52
2022-10-16T10:23:15.292Z,43.70
2022-10-16T10:25:49.304Z,45.71
2022-10-16T10:28:40.966Z,43.70
2022-10-16T10:31:08.559Z,44.22
2022-10-16T10:34:05.294Z,44.44
2022-10-16T10:36:40.326Z,44.54
2022-10-16T10:39:13.496Z,46.96
2022-10-16T10:41:49.451Z,44.43
2022-10-16T10:44:19.247Z,42.78
2022-10-16T10:47:04.814Z,43.60
2022-10-16T10:49:53.360Z,44.24
2022-10-16T10:52:35.097Z,43.26
2022-10-16T10:55:19.804Z,44.51
2022-10-16T10:58:30.013Z,44.31
2022-10-16T11:01:16.481Z,42.24
2022-10-16T11:04:01.639Z,41.82
2022-10-16T11:06:44.700Z,41.38
2022-10-16T11:09:32.120Z,41.87
2022-10-16T11:12:09.463Z,42.34
2022-10-16T11:14:41.698Z,44.68
2022-10-16T11:17:31.576Z,45.81
2022-10-16T11:20:26.432Z,43.22
2022-10-16T11:22:57.766Z,45.16
2022-10-16T11:25:32.751Z,45.28
2022-10-16T11:28:17.494Z,43.92
2022-10-16T11:31:00.744Z,43.04
2022-10-16T11:33:37.984Z,43.08
2022-10-16T11:36:18.077Z,42.54
2022-10-16T11:38:56.673Z,41.03
2022-10-16T11:41:26.321Z,41.50
2022-10-16T11:44:28.646Z,41.82
2022-10-16T11:47:46.569Z,42.18
2022-10-16T11:50:37.629Z,40.82
2022-10-16T11:53:10.976Z,41.19
2022-10-16T11:55:44.550Z,42.08
2022-10-16T11:58:33.668Z,41.68
2022-10-16T12:01:20.373Z,39.92
2022-10-16T12:03:55.569Z,43.12
2022-10-16T12:06:59.999Z,42.45
2022-10-16T12:09:38.720Z,41.93
2022-10-16T12:12:05.813Z,40.69
2022-10-16T12:15:11.447Z,40.02
2022-10-16T12:17:39.240Z,39.96
2022-10-16T12:20:18.084Z,40.13
2022-10-16T12:22:51.533Z,40.08
2022-10-16T12:25:25.808Z,41.54
2022-10-16T12:27:59.953Z,40.66
2022-10-16T12:30:31.079Z,42.34
2022-10-16T12:33:44.158Z,43.29
2022-10-16T12:36:17.053Z,43.05
2022-10-16T12:41:33.320Z,42.59
2022-10-16T12:44:02.549Z,43.11
2022-10-16T12:46:34.244Z,42.66
2022-10-16T12:49:13.209Z,44.01
2022-10-16T12:51:40.568Z,43.01
2022-10-16T12:54:32.864Z,42.85
2022-10-16T12:57:09.844Z,42.63
2022-10-16T12:59:39.608Z,43.16
2022-10-16T13:02:28.081Z,43.76
2022-10-16T13:05:24.103Z,42.60
2022-10-16T13:08:18.106Z,43.13
2022-10-16T13:11:23.591Z,42.26
2022-10-16T13:14:35.100Z,41.74
2022-10-16T13:17:05.915Z,45.15
2022-10-16T13:19:58.260Z,44.56
2022-10-16T13:22:55.179Z,44.50
2022-10-16T13:25:28.030Z,44.40
2022-10-16T13:28:00.447Z,45.31
2022-10-16T13:30:30.796Z,43.36
2022-10-16T13:33:22.476Z,44.49
2022-10-16T13:35:52.161Z,44.56
2022-10-16T13:38:22.721Z,46.19
2022-10-16T13:41:01.528Z,43.69
2022-10-16T13:43:37.962Z,44.55
2022-10-16T13:46:26.576Z,45.53
2022-10-16T13:49:03.642Z,43.85
2022-10-16T13:51:31.903Z,43.03
2022-10-16T13:53:59.528Z,42.41
2022-10-16T13:56:28.897Z,42.47
2022-10-16T13:59:04.181Z,43.30
2022-10-16T14:01:41.309Z,42.78
2022-10-16T14:04:13.435Z,44.84
2022-10-16T14:06:46.015Z,43.94
2022-10-16T14:09:18.799Z,43.43
2022-10-16T14:11:52.512Z,45.24
2022-10-16T14:14:20.808Z,43.73
2022-10-16T14:16:48.232Z,42.12
2022-10-16T14:19:26.986Z,42.05
2022-10-16T14:21:54.310Z,42.41
2022-10-16T14:24:28.523Z,42.95
2022-10-16T14:26:58.620Z,43.01
2022-10-16T14:29:27.881Z,43.40
2022-10-16T14:31:58.793Z,42.93
2022-10-16T14:34:31.654Z,43.50
2022-10-16T14:37:02.099Z,42.49
2022-10-16T14:39:29.371Z,42.51
2022-10-16T14:41:58.326Z,41.56
2022-10-16T14:44:32.973Z,42.08
2022-10-16T14:47:08.611Z,43.47
2022-10-16T14:49:35.921Z,41.90
2022-10-16T14:52:03.180Z,42.84
2022-10-16T14:54:30.073Z,42.43
2022-10-16T14:57:00.041Z,42.33
2022-10-16T14:59:42.192Z,40.51
2022-10-16T15:02:29.780Z,42.95
2022-10-16T15:04:56.921Z,42.15
2022-10-16T15:07:24.287Z,40.71
2022-10-16T15:09:51.572Z,42.13
2022-10-16T15:12:18.602Z,41.13
2022-10-16T15:14:45.454Z,40.28
2022-10-16T15:17:12.814Z,41.51
2022-10-16T15:19:39.944Z,41.36
2022-10-16T15:22:06.798Z,39.56
2022-10-16T15:24:33.646Z,39.73
2022-10-16T15:27:00.493Z,40.37
2022-10-16T15:29:27.354Z,39.71
2022-10-16T15:31:54.205Z,40.86
2022-10-16T15:34:21.065Z,40.73
2022-10-16T15:36:47.907Z,40.92
2022-10-16T15:39:17.966Z,41.30
2022-10-16T15:41:46.463Z,41.49
2022-10-16T15:44:13.772Z,40.78
2022-10-16T15:46:40.612Z,41.22
2022-10-16T15:49:08.072Z,40.10
2022-10-16T15:51:35.203Z,40.35
2022-10-16T15:54:03.048Z,39.06
2022-10-16T15:56:31.631Z,40.16
2022-10-16T15:58:59.453Z,40.84
2022-10-16T16:01:26.769Z,41.39
2022-10-16T16:03:55.102Z,42.27
2022-10-16T16:06:23.312Z,42.29
2022-10-16T16:08:50.292Z,43.95
2022-10-16T16:11:18.144Z,44.58
2022-10-16T16:13:45.317Z,43.72
2022-10-16T16:16:14.789Z,44.69
2022-10-16T16:18:42.073Z,44.04
2022-10-16T16:21:10.311Z,43.03
2022-10-16T16:23:37.257Z,42.78
2022-10-16T16:26:08.616Z,43.28
2022-10-16T16:28:35.559Z,42.88
2022-10-16T16:31:02.735Z,44.42
2022-10-16T16:33:29.798Z,45.47
2022-10-16T16:36:05.445Z,45.38
2022-10-16T16:38:33.133Z,44.67
2022-10-16T16:41:00.263Z,45.46
2022-10-16T16:43:28.123Z,46.05
2022-10-16T16:45:55.637Z,46.92
2022-10-16T16:48:23.356Z,47.09
2022-10-16T16:50:50.184Z,47.62
2022-10-16T16:53:17.015Z,47.11
2022-10-16T16:55:43.890Z,47.38
2022-10-16T16:58:10.749Z,50.42
2022-10-16T17:00:37.608Z,49.31
2022-10-16T17:03:04.442Z,48.50
2022-10-16T17:05:31.344Z,47.04
2022-10-16T17:07:58.182Z,47.44
2022-10-16T17:10:25.029Z,47.20
2022-10-16T17:12:51.911Z,48.31
2022-10-16T17:15:18.896Z,47.75
2022-10-16T17:17:45.847Z,47.42
2022-10-16T17:20:12.754Z,48.46
2022-10-16T17:22:39.603Z,47.45
2022-10-16T17:25:08.062Z,48.38
2022-10-16T17:27:36.505Z,49.32
2022-10-16T17:30:05.377Z,48.15
2022-10-16T17:32:32.254Z,49.55
2022-10-16T17:34:59.068Z,49.59
2022-10-16T17:37:25.927Z,51.06
2022-10-16T17:39:52.743Z,50.81
2022-10-16T17:42:19.607Z,52.10
2022-10-16T17:44:46.644Z,50.95
2022-10-16T17:47:13.555Z,52.76
2022-10-16T17:49:40.440Z,51.30
2022-10-16T17:52:07.454Z,51.59
2022-10-16T17:54:34.623Z,52.08
2022-10-16T17:57:01.531Z,51.78
2022-10-16T17:59:29.453Z,51.02
2022-10-16T18:01:56.332Z,50.71
2022-10-16T18:04:23.301Z,50.55
2022-10-16T18:06:50.212Z,51.51
2022-10-16T18:09:19.174Z,51.63
2022-10-16T18:11:47.163Z,49.33
2022-10-16T18:14:15.957Z,53.04
2022-10-16T18:16:43.697Z,51.05
2022-10-16T18:19:11.941Z,50.32
2022-10-16T18:21:38.794Z,49.53
2022-10-16T18:24:05.954Z,47.96
2022-10-16T18:26:33.322Z,47.49
2022-10-16T18:29:01.120Z,47.49
2022-10-16T18:31:28.643Z,46.88
2022-10-16T18:33:55.986Z,46.14
2022-10-16T18:36:31.037Z,47.09
2022-10-16T18:38:58.578Z,45.51
2022-10-16T18:41:26.282Z,46.05
2022-10-16T18:43:53.641Z,46.60
2022-10-16T18:46:25.558Z,47.69
2022-10-16T18:48:54.328Z,48.48
2022-10-16T18:51:29.255Z,48.43
2022-10-16T18:54:00.556Z,47.97
2022-10-16T18:56:28.747Z,49.12
2022-10-16T18:58:59.224Z,51.84
2022-10-16T19:01:28.362Z,50.09
2022-10-16T19:03:59.790Z,48.72
2022-10-16T19:06:27.501Z,49.76
2022-10-16T19:08:55.383Z,49.65
2022-10-16T19:11:24.783Z,49.20
2022-10-16T19:13:52.143Z,50.25
2022-10-16T19:16:21.826Z,50.32
2022-10-16T19:18:50.375Z,50.57
2022-10-16T19:21:17.836Z,50.42
2022-10-16T19:23:44.864Z,49.00
2022-10-16T19:26:16.853Z,49.71
2022-10-16T19:28:44.762Z,50.65
2022-10-16T19:31:14.408Z,52.11
2022-10-16T19:33:41.729Z,51.91
2022-10-16T19:36:13.792Z,51.85
2022-10-16T19:38:41.537Z,52.60
2022-10-16T19:41:08.877Z,53.34
2022-10-16T19:43:35.837Z,52.85
2022-10-16T19:46:04.764Z,55.40
2022-10-16T19:48:31.574Z,51.95
2022-10-16T19:50:58.491Z,51.63
2022-10-16T19:53:25.589Z,49.34
2022-10-16T19:55:52.444Z,49.31
2022-10-16T19:58:19.262Z,49.90
2022-10-16T20:00:46.148Z,52.62
2022-10-16T20:03:13.031Z,51.99
2022-10-16T20:05:39.895Z,48.23
2022-10-16T20:08:06.951Z,47.57
2022-10-16T20:10:33.772Z,47.72
2022-10-16T20:13:00.598Z,47.19
2022-10-16T20:15:27.459Z,47.29
2022-10-16T20:17:54.344Z,49.36
2022-10-16T20:20:21.171Z,51.09
2022-10-16T20:22:47.981Z,52.98
2022-10-16T20:25:16.822Z,54.88
2022-10-16T20:27:45.934Z,52.73
2022-10-16T20:30:12.752Z,50.23
2022-10-16T20:32:39.616Z,48.08
2022-10-16T20:35:07.993Z,50.82
2022-10-16T20:37:35.378Z,53.49
2022-10-16T20:40:02.237Z,54.24
2022-10-16T20:42:29.086Z,55.88
2022-10-16T20:44:55.952Z,60.43
2022-10-16T20:47:23.123Z,58.06
2022-10-16T20:49:49.942Z,55.97
2022-10-16T20:52:16.773Z,55.31
2022-10-16T20:54:45.991Z,52.81
2022-10-16T20:57:12.809Z,53.11
2022-10-16T20:59:39.606Z,50.93
2022-10-16T21:02:12.119Z,50.71
2022-10-16T21:04:41.061Z,53.40
2022-10-16T21:07:07.891Z,59.35
2022-10-16T21:09:34.763Z,69.09
2022-10-16T21:12:01.612Z,69.14
2022-10-16T21:14:28.480Z,64.51
2022-10-16T21:16:55.327Z,61.39
2022-10-16T21:19:22.159Z,58.64
2022-10-16T21:21:49.022Z,56.87
2022-10-16T21:24:17.996Z,53.15
2022-10-16T21:26:44.880Z,52.78
2022-10-16T21:29:12.206Z,54.39
2022-10-16T21:31:39.446Z,55.34
2022-10-16T21:34:06.314Z,55.93
2022-10-16T21:36:35.515Z,54.87
2022-10-16T21:39:04.452Z,54.10
2022-10-16T21:41:31.421Z,51.03
2022-10-16T21:43:58.815Z,51.30
2022-10-16T21:46:27.974Z,51.37
2022-10-16T21:48:59.430Z,51.92
2022-10-16T21:51:27.612Z,53.92
2022-10-16T21:53:55.229Z,54.33
2022-10-16T21:56:22.190Z,53.25
2022-10-16T21:58:49.245Z,53.18
2022-10-16T22:01:18.714Z,53.92
2022-10-16T22:03:46.685Z,55.07
2022-10-16T22:06:15.445Z,54.50
2022-10-16T22:08:42.616Z,54.66
2022-10-16T22:11:11.962Z,55.88
2022-10-16T22:13:39.084Z,58.12
2022-10-16T22:16:06.639Z,58.31
2022-10-16T22:18:34.347Z,57.03
2022-10-16T22:21:01.204Z,58.57
2022-10-16T22:23:28.075Z,59.18
2022-10-16T22:26:05.354Z,58.66
2022-10-16T22:28:32.102Z,54.86
2022-10-16T22:31:02.617Z,55.05
2022-10-16T22:33:29.704Z,54.21
2022-10-16T22:35:56.638Z,52.95
2022-10-16T22:38:23.499Z,53.64
2022-10-16T22:40:50.327Z,53.60
2022-10-16T22:43:17.161Z,55.28
2022-10-16T22:45:43.999Z,57.98
2022-10-16T22:48:10.852Z,58.12
2022-10-16T22:50:37.736Z,57.32
2022-10-16T22:53:04.577Z,56.27
2022-10-16T22:55:31.526Z,56.62
2022-10-16T22:57:58.355Z,55.38
2022-10-16T23:00:25.229Z,57.56
2022-10-16T23:02:52.227Z,57.44
2022-10-16T23:05:19.070Z,59.33
2022-10-16T23:07:46.635Z,58.49
2022-10-16T23:10:13.549Z,57.38
2022-10-16T23:12:40.368Z,55.41
2022-10-16T23:15:07.602Z,54.59
2022-10-16T23:17:34.554Z,57.83
2022-10-16T23:20:01.386Z,66.61
2022-10-16T23:22:28.481Z,61.42
2022-10-16T23:24:55.660Z,59.05
2022-10-16T23:27:22.481Z,54.67
2022-10-16T23:29:49.710Z,52.90
2022-10-16T23:32:16.604Z,51.70
2022-10-16T23:34:43.496Z,53.31
2022-10-16T23:37:10.407Z,53.50
2022-10-16T23:39:37.312Z,54.92
2022-10-16T23:42:04.255Z,57.36
2022-10-16T23:44:31.106Z,56.34
2022-10-16T23:46:57.976Z,56.69
2022-10-16T23:49:24.857Z,56.31
2022-10-16T23:51:51.776Z,54.00
2022-10-16T23:54:18.638Z,54.44
2022-10-16T23:56:45.484Z,51.88
2022-10-16T23:59:12.354Z,52.00
